createdAt,value
2022-10-18T00:00:02.982Z,6.70
2022-10-18T00:03:05.639Z,8.68
2022-10-18T00:06:10.108Z,6.97
2022-10-18T00:09:12.921Z,12.43
2022-10-18T00:12:16.889Z,16.95
2022-10-18T00:15:19.779Z,14.43
2022-10-18T00:18:23.077Z,8.05
2022-10-18T00:21:26.772Z,6.43
2022-10-18T00:24:29.471Z,10.80
2022-10-18T00:27:33.793Z,6.40
2022-10-18T00:30:36.455Z,13.97
2022-10-18T00:33:39.603Z,13.52
2022-10-18T00:36:43.069Z,14.65
2022-10-18T00:42:49.766Z,11.20
2022-10-18T00:45:52.409Z,9.70
2022-10-18T00:48:57.234Z,14.70
2022-10-18T00:52:07.682Z,8.40
2022-10-18T00:55:11.191Z,14.27
2022-10-18T01:01:18.825Z,13.53
2022-10-18T01:04:22.208Z,14.80
2022-10-18T01:07:35.192Z,10.13
2022-10-18T01:10:44.089Z,7.88
2022-10-18T01:14:02.330Z,10.30
2022-10-18T01:17:09.222Z,10.50
2022-10-18T01:20:32.267Z,10.13
2022-10-18T01:23:58.809Z,9.70
2022-10-18T01:27:36.160Z,9.90
2022-10-18T01:30:47.981Z,11.47
2022-10-18T01:33:53.548Z,9.37
2022-10-18T01:36:57.743Z,11.20
2022-10-18T01:40:00.876Z,10.83
2022-10-18T01:43:04.165Z,11.57
2022-10-18T01:46:09.473Z,16.17
2022-10-18T01:49:12.109Z,11.07
2022-10-18T01:52:15.590Z,9.82
2022-10-18T01:58:26.635Z,8.77
2022-10-18T02:01:36.300Z,7.63
2022-10-18T02:04:45.530Z,9.20
2022-10-18T02:08:00.339Z,18.50
2022-10-18T02:11:17.642Z,7.63
2022-10-18T02:14:21.479Z,7.33
2022-10-18T02:17:27.175Z,7.83
2022-10-18T02:20:32.372Z,8.40
2022-10-18T02:23:35.330Z,9.53
2022-10-18T02:26:38.139Z,10.75
2022-10-18T02:29:42.337Z,11.95
2022-10-18T02:32:50.935Z,8.07
2022-10-18T02:35:59.870Z,9.97
2022-10-18T02:39:06.251Z,12.23
2022-10-18T02:42:11.690Z,13.07
2022-10-18T02:45:14.834Z,10.80
2022-10-18T02:48:19.034Z,13.77
2022-10-18T02:51:21.719Z,13.23
2022-10-18T02:54:24.820Z,9.15
2022-10-18T02:57:27.701Z,7.45
2022-10-18T03:00:30.382Z,7.35
2022-10-18T03:03:34.275Z,5.18
2022-10-18T03:06:36.941Z,9.43
2022-10-18T03:09:39.577Z,8.77
2022-10-18T03:12:42.247Z,10.30
2022-10-18T03:15:44.983Z,11.13
2022-10-18T03:18:49.017Z,10.05
2022-10-18T03:21:51.671Z,6.77
2022-10-18T03:24:54.544Z,16.00
2022-10-18T03:27:57.210Z,10.05
2022-10-18T03:31:02.073Z,10.95
2022-10-18T03:34:06.068Z,8.77
2022-10-18T03:37:08.738Z,13.93
2022-10-18T03:40:12.117Z,8.20
2022-10-18T03:43:14.848Z,10.18
2022-10-18T03:46:17.503Z,13.60
2022-10-18T03:49:21.555Z,8.00
2022-10-18T03:52:24.190Z,9.47
2022-10-18T03:55:26.825Z,12.35
2022-10-18T03:58:29.622Z,14.05
2022-10-18T04:01:32.548Z,8.95
2022-10-18T04:04:36.665Z,11.35
2022-10-18T04:07:39.505Z,12.10
2022-10-18T04:10:42.743Z,8.77
2022-10-18T04:13:45.296Z,18.35
2022-10-18T04:16:48.040Z,14.20
2022-10-18T04:19:52.023Z,9.30
2022-10-18T04:22:57.539Z,8.87
2022-10-18T04:26:00.190Z,7.17
2022-10-18T04:29:02.916Z,10.00
2022-10-18T04:32:05.930Z,11.77
2022-10-18T04:35:11.485Z,8.95
2022-10-18T04:38:14.884Z,12.53
2022-10-18T04:41:17.518Z,7.90
2022-10-18T04:44:20.251Z,8.88
2022-10-18T04:47:23.092Z,9.20
2022-10-18T04:50:27.083Z,7.53
2022-10-18T04:53:29.872Z,7.73
2022-10-18T04:56:32.708Z,11.75
2022-10-18T04:59:35.363Z,4.63
2022-10-18T05:02:38.159Z,8.48
2022-10-18T05:06:00.937Z,12.10
2022-10-18T05:09:05.106Z,6.43
2022-10-18T05:12:07.835Z,14.30
2022-10-18T05:15:11.511Z,11.90
2022-10-18T05:18:14.292Z,15.27
2022-10-18T05:21:18.494Z,8.88
2022-10-18T05:24:23.038Z,9.77
2022-10-18T05:27:29.274Z,10.80
2022-10-18T05:30:32.015Z,11.47
2022-10-18T05:33:35.098Z,9.90
2022-10-18T05:36:39.222Z,11.20
2022-10-18T05:39:41.856Z,19.40
2022-10-18T05:42:44.824Z,12.93
2022-10-18T05:45:50.751Z,14.13
2022-10-18T05:48:53.360Z,7.57
2022-10-18T05:51:57.455Z,21.23
2022-10-18T05:55:00.128Z,11.67
2022-10-18T05:58:02.831Z,18.20
2022-10-18T06:01:06.724Z,14.18
2022-10-18T06:04:10.186Z,18.70
2022-10-18T06:10:16.762Z,15.80
2022-10-18T06:13:19.376Z,15.70
2022-10-18T06:16:24.815Z,15.13
2022-10-18T06:19:29.958Z,15.40
2022-10-18T06:22:33.985Z,10.80
2022-10-18T06:25:36.622Z,15.03
2022-10-18T06:28:39.608Z,9.23
2022-10-18T06:31:42.313Z,6.25
2022-10-18T06:34:44.939Z,9.18
2022-10-18T06:37:48.994Z,6.63
2022-10-18T06:40:51.690Z,4.87
2022-10-18T06:43:57.360Z,3.53
2022-10-18T06:47:00.052Z,4.03
2022-10-18T06:50:02.826Z,10.00
2022-10-18T06:53:08.704Z,6.38
2022-10-18T06:56:13.035Z,6.40
2022-10-18T06:59:16.002Z,6.10
2022-10-18T07:02:18.661Z,6.60
2022-10-18T07:05:21.452Z,6.13
2022-10-18T07:08:25.632Z,3.03
2022-10-18T07:11:28.301Z,3.70
2022-10-18T07:14:31.126Z,3.65
2022-10-18T07:17:34.069Z,6.50
2022-10-18T07:20:36.947Z,6.00
2022-10-18T07:23:42.764Z,2.28
2022-10-18T07:26:45.361Z,3.53
2022-10-18T07:29:48.719Z,5.65
2022-10-18T07:32:52.480Z,3.17
2022-10-18T07:35:55.049Z,3.60
2022-10-18T07:38:59.616Z,4.28
2022-10-18T07:42:02.254Z,6.20
2022-10-18T07:45:05.345Z,3.42
2022-10-18T07:48:08.056Z,5.55
2022-10-18T07:51:11.017Z,3.58
2022-10-18T07:54:14.967Z,3.05
2022-10-18T07:57:17.589Z,6.67
2022-10-18T08:00:20.512Z,11.55
2022-10-18T08:03:23.155Z,7.00
2022-10-18T08:06:25.899Z,3.53
2022-10-18T08:09:30.018Z,8.70
2022-10-18T08:12:32.700Z,3.90
2022-10-18T08:15:35.297Z,8.50
2022-10-18T08:18:39.043Z,5.38
2022-10-18T08:21:42.062Z,6.37
2022-10-18T08:24:46.192Z,4.35
2022-10-18T08:27:49.136Z,3.67
2022-10-18T08:30:51.791Z,3.03
2022-10-18T08:33:56.115Z,5.55
2022-10-18T08:36:58.840Z,3.63
2022-10-18T08:40:02.881Z,5.20
2022-10-18T08:43:08.477Z,3.43
2022-10-18T08:46:13.354Z,7.17
2022-10-18T08:49:24.181Z,6.60
2022-10-18T08:52:33.228Z,6.50
2022-10-18T08:55:40.145Z,3.83
2022-10-18T08:58:44.918Z,3.27
2022-10-18T09:01:58.258Z,5.97
2022-10-18T09:08:35.014Z,6.33
2022-10-18T09:11:48.196Z,9.30
2022-10-18T09:15:16.408Z,6.93
2022-10-18T09:18:32.980Z,3.17
2022-10-18T09:21:43.260Z,4.53
2022-10-18T09:24:49.566Z,6.73
2022-10-18T09:27:56.210Z,6.67
2022-10-18T09:31:03.549Z,8.33
2022-10-18T09:34:10.435Z,7.63
2022-10-18T09:37:14.929Z,4.80
2022-10-18T09:40:20.799Z,5.67
2022-10-18T09:43:27.152Z,5.20
2022-10-18T09:46:33.682Z,8.37
2022-10-18T09:49:40.262Z,14.97
2022-10-18T09:52:47.216Z,12.50
2022-10-18T09:55:57.877Z,7.43
2022-10-18T09:59:02.030Z,8.37
2022-10-18T10:02:05.200Z,6.80
2022-10-18T10:08:18.126Z,7.43
2022-10-18T10:11:29.628Z,6.13
2022-10-18T10:14:44.186Z,10.60
2022-10-18T10:17:55.126Z,6.50
2022-10-18T10:21:00.205Z,4.03
2022-10-18T10:24:04.512Z,5.87
2022-10-18T10:27:08.545Z,8.27
2022-10-18T10:30:25.930Z,8.17
2022-10-18T10:33:34.686Z,5.00
2022-10-18T10:36:47.672Z,5.80
2022-10-18T10:40:17.786Z,7.47
2022-10-18T10:43:36.927Z,6.07
2022-10-18T10:46:41.564Z,8.17
2022-10-18T10:49:47.280Z,7.63
2022-10-18T10:52:50.035Z,6.00
2022-10-18T10:55:54.845Z,5.45
2022-10-18T10:59:03.049Z,6.10
2022-10-18T11:02:23.819Z,4.43
2022-10-18T11:05:29.295Z,13.87
2022-10-18T11:08:36.562Z,10.20
2022-10-18T11:11:42.513Z,8.30
2022-10-18T11:14:48.286Z,6.03
2022-10-18T11:18:03.999Z,8.60
2022-10-18T11:21:10.880Z,8.07
2022-10-18T11:24:16.718Z,8.07
2022-10-18T11:27:24.749Z,9.27
2022-10-18T11:30:38.113Z,8.73
2022-10-18T11:34:09.932Z,5.83
2022-10-18T11:37:30.343Z,8.13
2022-10-18T11:40:48.345Z,6.22
2022-10-18T11:44:03.055Z,5.90
2022-10-18T11:47:13.185Z,4.65
2022-10-18T11:50:26.224Z,5.30
2022-10-18T11:56:37.943Z,5.82
2022-10-18T11:59:46.907Z,9.60
2022-10-18T12:02:58.555Z,4.93
2022-10-18T12:06:06.465Z,5.03
2022-10-18T12:09:17.483Z,5.50
2022-10-18T12:12:24.184Z,5.97
2022-10-18T12:15:28.535Z,5.45
2022-10-18T12:18:31.633Z,9.75
2022-10-18T12:21:35.690Z,9.15
2022-10-18T12:24:38.727Z,3.15
2022-10-18T12:27:45.308Z,3.58
2022-10-18T12:30:52.667Z,3.63
2022-10-18T12:33:59.082Z,4.25
2022-10-18T12:37:27.737Z,3.28
2022-10-18T12:40:35.606Z,8.07
2022-10-18T12:43:38.243Z,4.27
2022-10-18T12:46:45.099Z,6.20
2022-10-18T12:49:57.155Z,2.73
2022-10-18T12:53:06.576Z,4.43
2022-10-18T12:56:37.573Z,5.90
2022-10-18T12:59:43.001Z,3.38
2022-10-18T13:02:45.745Z,8.37
2022-10-18T13:05:56.701Z,8.68
2022-10-18T13:09:20.752Z,7.47
2022-10-18T13:12:48.273Z,6.80
2022-10-18T13:15:55.048Z,7.57
2022-10-18T13:19:00.483Z,5.68
2022-10-18T13:22:18.945Z,6.35
2022-10-18T13:25:27.366Z,5.40
2022-10-18T13:28:35.650Z,2.80
2022-10-18T13:31:42.886Z,2.30
2022-10-18T13:34:45.632Z,5.07
2022-10-18T13:37:58.997Z,3.53
2022-10-18T13:41:03.942Z,4.13
2022-10-18T13:44:25.750Z,3.22
2022-10-18T13:47:35.752Z,2.88
2022-10-18T13:50:39.289Z,2.47
2022-10-18T13:53:48.205Z,1.88
2022-10-18T13:57:03.177Z,2.13
2022-10-18T14:00:23.032Z,5.18
2022-10-18T14:03:57.685Z,4.05
2022-10-18T14:07:03.402Z,6.80
2022-10-18T14:10:11.350Z,5.80
2022-10-18T14:13:20.834Z,7.40
2022-10-18T14:16:35.970Z,4.38
2022-10-18T14:19:42.027Z,4.20
2022-10-18T14:22:47.593Z,6.38
2022-10-18T14:25:50.507Z,2.85
2022-10-18T14:32:10.625Z,1.63
2022-10-18T14:35:37.117Z,6.70
2022-10-18T14:38:46.767Z,3.30
2022-10-18T14:41:51.565Z,3.23
2022-10-18T14:44:56.658Z,4.87
2022-10-18T14:48:15.268Z,3.33
2022-10-18T14:51:18.079Z,5.17
2022-10-18T14:54:27.637Z,3.38
2022-10-18T14:57:37.152Z,3.87
2022-10-18T15:00:43.887Z,4.60
2022-10-18T15:03:49.489Z,3.73
2022-10-18T15:06:52.193Z,5.53
2022-10-18T15:09:54.959Z,2.42
2022-10-18T15:13:16.099Z,6.05
2022-10-18T15:16:21.943Z,6.23
2022-10-18T15:19:29.997Z,2.10
2022-10-18T15:22:33.735Z,3.57
2022-10-18T15:25:36.490Z,2.03
2022-10-18T15:28:49.524Z,5.45
2022-10-18T15:31:53.793Z,2.45
2022-10-18T15:34:57.190Z,5.20
2022-10-18T15:38:02.508Z,2.67
2022-10-18T15:41:39.510Z,3.67
2022-10-18T15:44:49.308Z,2.80
2022-10-18T15:48:05.125Z,7.53
2022-10-18T15:51:09.005Z,9.30
2022-10-18T15:54:18.356Z,5.17
2022-10-18T15:57:21.129Z,7.60
2022-10-18T16:00:23.718Z,4.00
2022-10-18T16:03:28.423Z,3.60
2022-10-18T16:06:32.375Z,4.77
2022-10-18T16:09:35.264Z,4.93
2022-10-18T16:12:38.178Z,4.75
2022-10-18T16:15:41.148Z,5.53
2022-10-18T16:18:45.329Z,4.85
2022-10-18T16:21:48.040Z,3.20
2022-10-18T16:24:52.566Z,3.38
2022-10-18T16:27:55.223Z,4.00
2022-10-18T16:30:59.824Z,3.42
2022-10-18T16:34:04.164Z,3.60
2022-10-18T16:37:06.967Z,8.60
2022-10-18T16:40:22.906Z,5.10
2022-10-18T16:43:25.946Z,2.63
2022-10-18T16:46:30.111Z,7.78
2022-10-18T16:49:34.249Z,3.87
2022-10-18T16:52:37.363Z,6.50
2022-10-18T16:55:41.485Z,4.65
2022-10-18T16:58:44.627Z,7.30
2022-10-18T17:01:47.566Z,4.15
2022-10-18T17:04:51.663Z,5.88
2022-10-18T17:07:54.401Z,2.77
2022-10-18T17:10:58.562Z,6.20
2022-10-18T17:14:01.246Z,3.97
2022-10-18T17:17:03.952Z,5.22
2022-10-18T17:20:09.642Z,5.20
2022-10-18T17:23:12.569Z,4.33
2022-10-18T17:26:28.359Z,6.40
2022-10-18T17:29:32.162Z,4.87
2022-10-18T17:32:34.850Z,6.50
2022-10-18T17:35:39.646Z,4.63
2022-10-18T17:38:42.495Z,5.53
2022-10-18T17:41:45.318Z,15.00
2022-10-18T17:44:48.248Z,4.07
2022-10-18T17:47:51.273Z,6.28
2022-10-18T17:50:55.516Z,11.60
2022-10-18T17:53:58.191Z,4.10
2022-10-18T17:57:00.958Z,3.47
2022-10-18T18:00:05.926Z,5.30
2022-10-18T18:03:08.739Z,4.70
2022-10-18T18:06:17.965Z,5.97
2022-10-18T18:09:21.200Z,5.03
2022-10-18T18:15:27.075Z,3.70
2022-10-18T18:18:29.922Z,5.97
2022-10-18T18:21:34.438Z,6.20
2022-10-18T18:24:37.420Z,7.47
2022-10-18T18:27:40.232Z,6.80
2022-10-18T18:30:43.130Z,7.18
2022-10-18T18:33:46.321Z,9.27
2022-10-18T18:36:51.934Z,6.28
2022-10-18T18:39:54.587Z,6.27
2022-10-18T18:43:12.083Z,12.02
2022-10-18T18:46:21.775Z,7.50
2022-10-18T18:49:24.589Z,10.27
2022-10-18T18:52:28.807Z,5.25
2022-10-18T18:55:33.823Z,5.93
2022-10-18T18:58:38.133Z,7.87
2022-10-18T19:01:41.420Z,8.03
2022-10-18T19:04:44.372Z,8.68
2022-10-18T19:07:48.569Z,7.20
2022-10-18T19:10:51.352Z,9.73
2022-10-18T19:13:54.363Z,9.93
2022-10-18T19:16:59.000Z,8.65
2022-10-18T19:20:02.408Z,12.07
2022-10-18T19:26:12.836Z,11.97
2022-10-18T19:29:16.953Z,7.77
2022-10-18T19:32:19.847Z,12.33
2022-10-18T19:35:22.950Z,10.98
2022-10-18T19:38:27.149Z,9.95
2022-10-18T19:41:30.096Z,9.37
2022-10-18T19:44:33.975Z,10.23
2022-10-18T19:47:38.551Z,14.57
2022-10-18T19:50:41.341Z,11.90
2022-10-18T19:53:45.573Z,11.23
2022-10-18T19:56:48.545Z,11.33
2022-10-18T19:59:51.237Z,8.95
2022-10-18T20:02:53.988Z,11.43
2022-10-18T20:05:57.830Z,12.60
2022-10-18T20:09:01.991Z,10.13
2022-10-18T20:12:05.183Z,16.87
2022-10-18T20:15:09.406Z,6.38
2022-10-18T20:18:12.187Z,12.07
2022-10-18T20:21:18.028Z,10.50
2022-10-18T20:24:22.163Z,9.93
2022-10-18T20:27:27.408Z,11.30
2022-10-18T20:30:30.410Z,8.20
2022-10-18T20:33:34.004Z,9.35
2022-10-18T20:36:37.150Z,13.10
2022-10-18T20:39:41.835Z,13.05
2022-10-18T20:42:44.549Z,11.33
2022-10-18T20:45:47.300Z,7.47
2022-10-18T20:48:50.653Z,12.15
2022-10-18T20:54:57.512Z,12.30
2022-10-18T20:58:00.224Z,9.57
2022-10-18T21:01:07.862Z,10.45
2022-10-18T21:04:11.497Z,12.40
2022-10-18T21:07:14.277Z,10.60
2022-10-18T21:10:18.525Z,10.45
2022-10-18T21:13:21.379Z,12.03
2022-10-18T21:16:24.296Z,10.85
2022-10-18T21:19:28.174Z,14.68
2022-10-18T21:22:31.290Z,10.27
2022-10-18T21:25:35.727Z,11.15
2022-10-18T21:28:38.606Z,11.40
2022-10-18T21:31:43.338Z,8.18
2022-10-18T21:34:46.059Z,13.40
2022-10-18T21:37:48.783Z,13.45
2022-10-18T21:40:52.814Z,13.60
2022-10-18T21:43:56.638Z,11.23
2022-10-18T21:46:59.251Z,15.30
2022-10-18T21:50:01.965Z,13.80
2022-10-18T21:53:04.586Z,11.02
2022-10-18T21:56:10.696Z,12.00
2022-10-18T21:59:13.895Z,8.47
2022-10-18T22:02:16.619Z,10.10
2022-10-18T22:05:19.818Z,8.85
2022-10-18T22:08:22.958Z,16.55
2022-10-18T22:11:29.125Z,9.27
2022-10-18T22:14:31.775Z,11.53
2022-10-18T22:17:34.676Z,13.95
2022-10-18T22:20:37.644Z,11.20
2022-10-18T22:23:42.335Z,21.02
2022-10-18T22:26:47.112Z,10.03
2022-10-18T22:29:49.765Z,14.30
2022-10-18T22:32:52.486Z,13.85
2022-10-18T22:35:55.147Z,9.70
2022-10-18T22:38:57.863Z,13.32
2022-10-18T22:42:01.920Z,7.72
2022-10-18T22:45:05.103Z,10.53
2022-10-18T22:48:07.864Z,11.55
2022-10-18T22:51:11.129Z,13.80
2022-10-18T22:54:13.836Z,13.45
2022-10-18T22:57:17.809Z,15.23
2022-10-18T23:00:20.437Z,12.53
2022-10-18T23:03:23.196Z,18.13
2022-10-18T23:06:27.250Z,14.73
2022-10-18T23:09:29.913Z,8.60
2022-10-18T23:12:34.426Z,11.73
2022-10-18T23:15:39.037Z,10.83
2022-10-18T23:18:41.724Z,14.00
2022-10-18T23:21:44.365Z,13.55
2022-10-18T23:24:47.081Z,12.13
2022-10-18T23:27:51.145Z,15.57
2022-10-18T23:30:53.842Z,12.70
2022-10-18T23:33:58.321Z,15.30
2022-10-18T23:37:00.939Z,12.40
2022-10-18T23:40:03.592Z,14.35
2022-10-18T23:43:07.565Z,14.93
2022-10-18T23:46:10.270Z,15.10
2022-10-18T23:49:13.048Z,14.60
2022-10-18T23:52:15.752Z,16.95
2022-10-18T23:55:18.417Z,21.27
2022-10-18T23:58:22.601Z,14.85
